Aleksandr Zhitnik — EMBN — position and weather

sailwx.info

Track history (hours):
 
Tides and Currents Weather Stations Pressure Air Temp Water Temp Dewpoint Dewpoint Depression Visibility Wind Speed Wind Dir Waves Ship Positions

Aleksandr Zhitnik

Last reported at 2017-Aug-19 18:30 UTC. Time now 2017-Aug-19 18:44 UTC.
Position N 47°52' E 035°03'.

Length 85 m; draft 1.8 m.

MMSI: 272089600.

Date/timePositionNaut miles runAvg speedWind from/ knotsBaromVisibWave heightAir tempDewpointWater temp
2017-Aug-19 18:30N 47°52' E 035°03'0 0.0
2017-Aug-19 18:00N 47°52' E 035°03'0 0.0
2017-Aug-19 17:30N 47°52' E 035°03'0 0.0
2017-Aug-19 17:00N 47°52' E 035°03'0 0.0
2017-Aug-19 16:30N 47°52' E 035°03'0 0.0
2017-Aug-19 16:00N 47°52' E 035°03'0 0.0
2017-Aug-19 15:30N 47°52' E 035°03'0 0.0
2017-Aug-19 15:00N 47°52' E 035°03'0 0.0
2017-Aug-19 14:00N 47°52' E 035°03'0 0.0
2017-Aug-19 13:30N 47°52' E 035°03'0 0.0
2017-Aug-19 13:00N 47°52' E 035°03'0 0.0
2017-Aug-19 12:30N 47°52' E 035°03'0 0.0
2017-Aug-19 12:00N 47°52' E 035°03'0 0.0
2017-Aug-19 11:30N 47°52' E 035°03'0 0.0
2017-Aug-19 11:00N 47°52' E 035°03'0 0.0
2017-Aug-19 10:30N 47°52' E 035°03'0 0.0
2017-Aug-19 10:00N 47°52' E 035°03'0 0.0
2017-Aug-19 09:30N 47°52' E 035°03'0 0.0
2017-Aug-19 09:00N 47°52' E 035°03'0 0.9
2017-Aug-19 08:30N 47°51' E 035°03'2 4.9
2017-Aug-19 08:00N 47°49' E 035°05'3 5.4
2017-Aug-19 07:30N 47°47' E 035°08'2 4.9
2017-Aug-19 07:00N 47°45' E 035°10'2 4.6
2017-Aug-19 06:30N 47°43' E 035°09'2 4.8
2017-Aug-19 06:00N 47°41' E 035°08'2 4.8
2017-Aug-19 05:30N 47°39' E 035°06'2 4.9
2017-Aug-19 05:00N 47°37' E 035°03'2 4.7
2017-Aug-19 04:30N 47°35' E 035°02'8 5.3
2017-Aug-19 03:00N 47°32' E 034°51'3 5.7
2017-Aug-19 02:30N 47°31' E 034°47'  
2017-Aug-15 13:43N 47°34' E 035°00'1 4.7
2017-Aug-15 13:30N 47°35' E 035°02'2 4.9
2017-Aug-15 12:59N 47°37' E 035°03'2 5.1
2017-Aug-15 12:30N 47°38' E 035°06'3 5.1
2017-Aug-15 12:00N 47°41' E 035°07'2 5.0
2017-Aug-15 11:30N 47°43' E 035°09'2 4.6
2017-Aug-15 11:00N 47°45' E 035°10'2 4.9
2017-Aug-15 10:30N 47°47' E 035°08'2 4.5
2017-Aug-15 10:00N 47°49' E 035°05'3 5.6
2017-Aug-15 09:30N 47°51' E 035°03'0 0.9
2017-Aug-15 09:00N 47°52' E 035°03'0 0.0
2017-Aug-15 08:30N 47°52' E 035°03'0 0.0
2017-Aug-15 08:00N 47°52' E 035°03'0 0.0
2017-Aug-15 07:30N 47°52' E 035°03'0 0.0
2017-Aug-15 07:00N 47°52' E 035°03'0 0.0
2017-Aug-15 06:30N 47°52' E 035°03'0 0.0
2017-Aug-15 06:00N 47°52' E 035°03'0 0.0
2017-Aug-15 05:30N 47°52' E 035°03'0 0.0
2017-Aug-15 05:00N 47°52' E 035°03'0 0.1
2017-Aug-15 04:30N 47°52' E 035°03'0 0.0
2017-Aug-15 04:00N 47°52' E 035°03'0 0.0
2017-Aug-15 03:30N 47°52' E 035°03'0 0.0
2017-Aug-15 03:00N 47°52' E 035°03'0 0.0
2017-Aug-15 02:30N 47°52' E 035°03'0 0.0
2017-Aug-15 02:00N 47°52' E 035°03'0 0.0
2017-Aug-15 01:30N 47°52' E 035°03'0 0.0
2017-Aug-15 01:00N 47°52' E 035°03'0 0.0
2017-Aug-15 00:30N 47°52' E 035°03'0 0.0
2017-Aug-15 00:00N 47°52' E 035°03'0 0.0
2017-Aug-14 23:30N 47°52' E 035°03'0 0.0
2017-Aug-14 23:00N 47°52' E 035°03'0 0.0
2017-Aug-14 22:30N 47°52' E 035°03'0 0.0
2017-Aug-14 22:00N 47°52' E 035°03'0 0.0
2017-Aug-14 21:30N 47°52' E 035°03'0 0.0
2017-Aug-14 21:00N 47°52' E 035°03'0 0.0
2017-Aug-14 20:30N 47°52' E 035°03'0 0.0
2017-Aug-14 20:00N 47°52' E 035°03'0 0.0
2017-Aug-14 19:30N 47°52' E 035°03'0 0.0
2017-Aug-14 19:00N 47°52' E 035°03'0 0.0
2017-Aug-14 18:30N 47°52' E 035°03'0 0.0
2017-Aug-14 18:00N 47°52' E 035°03'0 0.0
2017-Aug-14 17:30N 47°52' E 035°03'0 0.0
2017-Aug-14 17:00N 47°52' E 035°03'0 0.0
2017-Aug-14 16:30N 47°52' E 035°03'0 0.0
2017-Aug-14 16:00N 47°52' E 035°03'0 0.0
2017-Aug-14 15:30N 47°52' E 035°03'0 0.0
2017-Aug-14 15:00N 47°52' E 035°03'0 0.0
2017-Aug-14 14:30N 47°52' E 035°03'0 0.0
2017-Aug-14 14:00N 47°52' E 035°03'0 0.0
2017-Aug-14 13:30N 47°52' E 035°03'0 0.0
2017-Aug-14 13:00N 47°52' E 035°03'0 0.0
2017-Aug-14 12:29N 47°52' E 035°03'0 0.0
2017-Aug-14 12:00N 47°52' E 035°03'0 0.1
2017-Aug-14 11:30N 47°52' E 035°03'0 0.0
2017-Aug-14 11:00N 47°52' E 035°03'0 0.0
2017-Aug-14 10:30N 47°52' E 035°03'0 0.0
2017-Aug-14 10:00N 47°52' E 035°03'0 0.0
2017-Aug-14 09:30N 47°52' E 035°03'0 0.0
2017-Aug-14 09:00N 47°52' E 035°03'0 0.0
2017-Aug-14 08:30N 47°52' E 035°03'0 0.0
2017-Aug-14 08:00N 47°52' E 035°03'0 0.0
2017-Aug-14 07:30N 47°52' E 035°03'0 0.0
2017-Aug-14 07:00N 47°52' E 035°03'0 0.0
2017-Aug-14 06:30N 47°52' E 035°03'0 0.0
2017-Aug-14 06:00N 47°52' E 035°03'0 0.0
2017-Aug-14 05:30N 47°52' E 035°03'0 0.1
2017-Aug-14 05:00N 47°52' E 035°03'0 0.0
2017-Aug-14 04:30N 47°52' E 035°03'0 0.0
2017-Aug-14 04:00N 47°52' E 035°03'0 0.0
2017-Aug-14 03:30N 47°52' E 035°03'0 0.0
2017-Aug-14 03:00N 47°52' E 035°03'0 0.0
2017-Aug-14 02:30N 47°52' E 035°03'0 0.0
2017-Aug-14 02:00N 47°52' E 035°03'0 0.0
2017-Aug-14 01:30N 47°52' E 035°03'0 0.0
2017-Aug-14 01:00N 47°52' E 035°03'0 0.0
2017-Aug-14 00:30N 47°52' E 035°03'0 0.0
2017-Aug-14 00:00N 47°52' E 035°03'0 0.0
2017-Aug-13 23:30N 47°52' E 035°03'0 0.0
2017-Aug-13 23:00N 47°52' E 035°03'0 0.0
2017-Aug-13 22:30N 47°52' E 035°03'0 0.0
2017-Aug-13 22:00N 47°52' E 035°03'0 0.0
2017-Aug-13 21:30N 47°52' E 035°03'0 0.0
2017-Aug-13 21:00N 47°52' E 035°03'0 0.0
2017-Aug-13 20:30N 47°52' E 035°03'0 0.0
2017-Aug-13 20:00N 47°52' E 035°03'0 0.0
2017-Aug-13 19:30N 47°52' E 035°03'0 0.0
2017-Aug-13 19:00N 47°52' E 035°03'0 0.0
2017-Aug-13 18:30N 47°52' E 035°03'0 0.0
2017-Aug-13 18:00N 47°52' E 035°03'0 0.0
2017-Aug-13 17:30N 47°52' E 035°03'0 0.0
2017-Aug-13 17:00N 47°52' E 035°03'0 0.0
2017-Aug-13 16:30N 47°52' E 035°03'0 0.0
2017-Aug-13 16:00N 47°52' E 035°03'0 0.0
2017-Aug-13 15:30N 47°52' E 035°03'0 0.0
2017-Aug-13 15:00N 47°52' E 035°03'0 0.0
2017-Aug-13 14:30N 47°52' E 035°03'0 0.0
2017-Aug-13 14:00N 47°52' E 035°03'0 0.0
2017-Aug-13 13:30N 47°52' E 035°03'2 3.1
2017-Aug-13 13:01N 47°50' E 035°03'3 6.3
2017-Aug-13 12:30N 47°48' E 035°07'3 6.2
2017-Aug-13 12:00N 47°46' E 035°10'3 5.5
2017-Aug-13 11:30N 47°43' E 035°08'3 5.9
2017-Aug-13 11:00N 47°40' E 035°07'3 5.7
2017-Aug-13 10:30N 47°38' E 035°05'3 5.6
2017-Aug-13 09:59N 47°35' E 035°02'  
Track history (hours):
 
Tides and Currents Weather Stations Pressure Air Temp Water Temp Dewpoint Dewpoint Depression Visibility Wind Speed Wind Dir Waves Ship Positions

Aleksandr Zhitnik

Last reported at 2017-Aug-19 18:30 UTC. Time now 2017-Aug-19 18:44 UTC.
Position N 47°52' E 035°03'.

Length 85 m; draft 1.8 m.

MMSI: 272089600.

Date/timePositionNaut miles runAvg speedWind from/ knotsBaromVisibWave heightAir tempDewpointWater temp
2017-Aug-19 18:30N 47°52' E 035°03'0 0.0
2017-Aug-19 18:00N 47°52' E 035°03'0 0.0
2017-Aug-19 17:30N 47°52' E 035°03'0 0.0
2017-Aug-19 17:00N 47°52' E 035°03'0 0.0
2017-Aug-19 16:30N 47°52' E 035°03'0 0.0
2017-Aug-19 16:00N 47°52' E 035°03'0 0.0
2017-Aug-19 15:30N 47°52' E 035°03'0 0.0
2017-Aug-19 15:00N 47°52' E 035°03'0 0.0
2017-Aug-19 14:00N 47°52' E 035°03'0 0.0
2017-Aug-19 13:30N 47°52' E 035°03'0 0.0
2017-Aug-19 13:00N 47°52' E 035°03'0 0.0
2017-Aug-19 12:30N 47°52' E 035°03'0 0.0
2017-Aug-19 12:00N 47°52' E 035°03'0 0.0
2017-Aug-19 11:30N 47°52' E 035°03'0 0.0
2017-Aug-19 11:00N 47°52' E 035°03'0 0.0
2017-Aug-19 10:30N 47°52' E 035°03'0 0.0
2017-Aug-19 10:00N 47°52' E 035°03'0 0.0
2017-Aug-19 09:30N 47°52' E 035°03'0 0.0
2017-Aug-19 09:00N 47°52' E 035°03'0 0.9
2017-Aug-19 08:30N 47°51' E 035°03'2 4.9
2017-Aug-19 08:00N 47°49' E 035°05'3 5.4
2017-Aug-19 07:30N 47°47' E 035°08'2 4.9
2017-Aug-19 07:00N 47°45' E 035°10'2 4.6
2017-Aug-19 06:30N 47°43' E 035°09'2 4.8
2017-Aug-19 06:00N 47°41' E 035°08'2 4.8
2017-Aug-19 05:30N 47°39' E 035°06'2 4.9
2017-Aug-19 05:00N 47°37' E 035°03'2 4.7
2017-Aug-19 04:30N 47°35' E 035°02'8 5.3
2017-Aug-19 03:00N 47°32' E 034°51'3 5.7
2017-Aug-19 02:30N 47°31' E 034°47'  
2017-Aug-15 13:43N 47°34' E 035°00'1 4.7
2017-Aug-15 13:30N 47°35' E 035°02'2 4.9
2017-Aug-15 12:59N 47°37' E 035°03'2 5.1
2017-Aug-15 12:30N 47°38' E 035°06'3 5.1
2017-Aug-15 12:00N 47°41' E 035°07'2 5.0
2017-Aug-15 11:30N 47°43' E 035°09'2 4.6
2017-Aug-15 11:00N 47°45' E 035°10'2 4.9
2017-Aug-15 10:30N 47°47' E 035°08'2 4.5
2017-Aug-15 10:00N 47°49' E 035°05'3 5.6
2017-Aug-15 09:30N 47°51' E 035°03'0 0.9
2017-Aug-15 09:00N 47°52' E 035°03'0 0.0
2017-Aug-15 08:30N 47°52' E 035°03'0 0.0
2017-Aug-15 08:00N 47°52' E 035°03'0 0.0
2017-Aug-15 07:30N 47°52' E 035°03'0 0.0
2017-Aug-15 07:00N 47°52' E 035°03'0 0.0
2017-Aug-15 06:30N 47°52' E 035°03'0 0.0
2017-Aug-15 06:00N 47°52' E 035°03'0 0.0
2017-Aug-15 05:30N 47°52' E 035°03'0 0.0
2017-Aug-15 05:00N 47°52' E 035°03'0 0.1
2017-Aug-15 04:30N 47°52' E 035°03'0 0.0
2017-Aug-15 04:00N 47°52' E 035°03'0 0.0
2017-Aug-15 03:30N 47°52' E 035°03'0 0.0
2017-Aug-15 03:00N 47°52' E 035°03'0 0.0
2017-Aug-15 02:30N 47°52' E 035°03'0 0.0
2017-Aug-15 02:00N 47°52' E 035°03'0 0.0
2017-Aug-15 01:30N 47°52' E 035°03'0 0.0
2017-Aug-15 01:00N 47°52' E 035°03'0 0.0
2017-Aug-15 00:30N 47°52' E 035°03'0 0.0
2017-Aug-15 00:00N 47°52' E 035°03'0 0.0
2017-Aug-14 23:30N 47°52' E 035°03'0 0.0
2017-Aug-14 23:00N 47°52' E 035°03'0 0.0
2017-Aug-14 22:30N 47°52' E 035°03'0 0.0
2017-Aug-14 22:00N 47°52' E 035°03'0 0.0
2017-Aug-14 21:30N 47°52' E 035°03'0 0.0
2017-Aug-14 21:00N 47°52' E 035°03'0 0.0
2017-Aug-14 20:30N 47°52' E 035°03'0 0.0
2017-Aug-14 20:00N 47°52' E 035°03'0 0.0
2017-Aug-14 19:30N 47°52' E 035°03'0 0.0
2017-Aug-14 19:00N 47°52' E 035°03'0 0.0
2017-Aug-14 18:30N 47°52' E 035°03'0 0.0
2017-Aug-14 18:00N 47°52' E 035°03'0 0.0
2017-Aug-14 17:30N 47°52' E 035°03'0 0.0
2017-Aug-14 17:00N 47°52' E 035°03'0 0.0
2017-Aug-14 16:30N 47°52' E 035°03'0 0.0
2017-Aug-14 16:00N 47°52' E 035°03'0 0.0
2017-Aug-14 15:30N 47°52' E 035°03'0 0.0
2017-Aug-14 15:00N 47°52' E 035°03'0 0.0
2017-Aug-14 14:30N 47°52' E 035°03'0 0.0
2017-Aug-14 14:00N 47°52' E 035°03'0 0.0
2017-Aug-14 13:30N 47°52' E 035°03'0 0.0
2017-Aug-14 13:00N 47°52' E 035°03'0 0.0
2017-Aug-14 12:29N 47°52' E 035°03'0 0.0
2017-Aug-14 12:00N 47°52' E 035°03'0 0.1
2017-Aug-14 11:30N 47°52' E 035°03'0 0.0
2017-Aug-14 11:00N 47°52' E 035°03'0 0.0
2017-Aug-14 10:30N 47°52' E 035°03'0 0.0
2017-Aug-14 10:00N 47°52' E 035°03'0 0.0
2017-Aug-14 09:30N 47°52' E 035°03'0 0.0
2017-Aug-14 09:00N 47°52' E 035°03'0 0.0
2017-Aug-14 08:30N 47°52' E 035°03'0 0.0
2017-Aug-14 08:00N 47°52' E 035°03'0 0.0
2017-Aug-14 07:30N 47°52' E 035°03'0 0.0
2017-Aug-14 07:00N 47°52' E 035°03'0 0.0
2017-Aug-14 06:30N 47°52' E 035°03'0 0.0
2017-Aug-14 06:00N 47°52' E 035°03'0 0.0
2017-Aug-14 05:30N 47°52' E 035°03'0 0.1
2017-Aug-14 05:00N 47°52' E 035°03'0 0.0
2017-Aug-14 04:30N 47°52' E 035°03'0 0.0
2017-Aug-14 04:00N 47°52' E 035°03'0 0.0
2017-Aug-14 03:30N 47°52' E 035°03'0 0.0
2017-Aug-14 03:00N 47°52' E 035°03'0 0.0
2017-Aug-14 02:30N 47°52' E 035°03'0 0.0
2017-Aug-14 02:00N 47°52' E 035°03'0 0.0
2017-Aug-14 01:30N 47°52' E 035°03'0 0.0
2017-Aug-14 01:00N 47°52' E 035°03'0 0.0
2017-Aug-14 00:30N 47°52' E 035°03'0 0.0
2017-Aug-14 00:00N 47°52' E 035°03'0 0.0
2017-Aug-13 23:30N 47°52' E 035°03'0 0.0
2017-Aug-13 23:00N 47°52' E 035°03'0 0.0
2017-Aug-13 22:30N 47°52' E 035°03'0 0.0
2017-Aug-13 22:00N 47°52' E 035°03'0 0.0
2017-Aug-13 21:30N 47°52' E 035°03'0 0.0
2017-Aug-13 21:00N 47°52' E 035°03'0 0.0
2017-Aug-13 20:30N 47°52' E 035°03'0 0.0
2017-Aug-13 20:00N 47°52' E 035°03'0 0.0
2017-Aug-13 19:30N 47°52' E 035°03'0 0.0
2017-Aug-13 19:00N 47°52' E 035°03'0 0.0
2017-Aug-13 18:30N 47°52' E 035°03'0 0.0
2017-Aug-13 18:00N 47°52' E 035°03'0 0.0
2017-Aug-13 17:30N 47°52' E 035°03'0 0.0
2017-Aug-13 17:00N 47°52' E 035°03'0 0.0
2017-Aug-13 16:30N 47°52' E 035°03'0 0.0
2017-Aug-13 16:00N 47°52' E 035°03'0 0.0
2017-Aug-13 15:30N 47°52' E 035°03'0 0.0
2017-Aug-13 15:00N 47°52' E 035°03'0 0.0
2017-Aug-13 14:30N 47°52' E 035°03'0 0.0
2017-Aug-13 14:00N 47°52' E 035°03'0 0.0
2017-Aug-13 13:30N 47°52' E 035°03'2 3.1
2017-Aug-13 13:01N 47°50' E 035°03'3 6.3
2017-Aug-13 12:30N 47°48' E 035°07'3 6.2
2017-Aug-13 12:00N 47°46' E 035°10'3 5.5
2017-Aug-13 11:30N 47°43' E 035°08'3 5.9
2017-Aug-13 11:00N 47°40' E 035°07'3 5.7
2017-Aug-13 10:30N 47°38' E 035°05'3 5.6
2017-Aug-13 09:59N 47°35' E 035°02'  

Dump ship's entire track history